sensor_id;sensor_type;location;lat;lon;timestamp;pressure;altitude;pressure_sealevel;temperature;humidity
75759;BME280;64371;47.566;19.086;2023-02-26T00:00:37;99244.47;;;3.63;68.88
75759;BME280;64371;47.566;19.086;2023-02-26T00:03:48;99249.41;;;3.59;68.96
75759;BME280;64371;47.566;19.086;2023-02-26T00:06:51;99229.34;;;3.55;68.63
75759;BME280;64371;47.566;19.086;2023-02-26T00:09:59;99245.25;;;3.58;68.79
75759;BME280;64371;47.566;19.086;2023-02-26T00:13:07;99234.81;;;3.58;68.17
75759;BME280;64371;47.566;19.086;2023-02-26T00:16:32;99251.75;;;3.56;68.02
75759;BME280;64371;47.566;19.086;2023-02-26T00:19:35;99247.56;;;3.55;68.08
75759;BME280;64371;47.566;19.086;2023-02-26T00:22:43;99244.69;;;3.41;68.35
75759;BME280;64371;47.566;19.086;2023-02-26T00:25:48;99265.56;;;3.46;68.21
75759;BME280;64371;47.566;19.086;2023-02-26T00:32:07;99225.41;;;3.42;67.96
75759;BME280;64371;47.566;19.086;2023-02-26T00:35:19;99196.25;;;3.40;68.13
75759;BME280;64371;47.566;19.086;2023-02-26T00:38:22;99190.22;;;3.29;68.74
75759;BME280;64371;47.566;19.086;2023-02-26T00:41:31;99219.16;;;3.28;68.74
75759;BME280;64371;47.566;19.086;2023-02-26T00:44:34;99234.78;;;3.33;68.85
75759;BME280;64371;47.566;19.086;2023-02-26T00:51:55;99221.50;;;3.40;68.66
75759;BME280;64371;47.566;19.086;2023-02-26T00:55:03;99217.34;;;3.49;68.43
75759;BME280;64371;47.566;19.086;2023-02-26T00:58:09;99226.47;;;3.46;68.46
75759;BME280;64371;47.566;19.086;2023-02-26T01:01:14;99220.47;;;3.51;68.25
75759;BME280;64371;47.566;19.086;2023-02-26T01:04:21;99238.72;;;3.46;69.00
75759;BME280;64371;47.566;19.086;2023-02-26T01:10:59;99223.31;;;3.44;68.70
75759;BME280;64371;47.566;19.086;2023-02-26T01:14:07;99237.94;;;3.45;68.49
75759;BME280;64371;47.566;19.086;2023-02-26T01:20:50;99259.03;;;3.39;68.39
75759;BME280;64371;47.566;19.086;2023-02-26T01:24:16;99268.69;;;3.48;68.10
75759;BME280;64371;47.566;19.086;2023-02-26T01:27:36;99260.06;;;3.38;68.54
75759;BME280;64371;47.566;19.086;2023-02-26T01:30:42;99253.50;;;3.25;68.57
75759;BME280;64371;47.566;19.086;2023-02-26T01:33:53;99255.34;;;3.24;68.57
75759;BME280;64371;47.566;19.086;2023-02-26T01:37:24;99239.97;;;3.23;68.86
75759;BME280;64371;47.566;19.086;2023-02-26T01:44:14;99228.25;;;3.20;68.74
75759;BME280;64371;47.566;19.086;2023-02-26T01:50:46;99211.03;;;3.04;68.68
75759;BME280;64371;47.566;19.086;2023-02-26T01:53:50;99219.63;;;3.05;68.54
75759;BME280;64371;47.566;19.086;2023-02-26T01:57:19;99217.53;;;3.02;68.92
75759;BME280;64371;47.566;19.086;2023-02-26T02:00:31;99247.72;;;2.98;69.04
75759;BME280;64371;47.566;19.086;2023-02-26T02:03:38;99261.78;;;2.97;68.92
75759;BME280;64371;47.566;19.086;2023-02-26T02:06:44;99268.28;;;2.99;68.97
75759;BME280;64371;47.566;19.086;2023-02-26T02:09:51;99267.75;;;2.92;69.46
75759;BME280;64371;47.566;19.086;2023-02-26T02:27:32;99246.13;;;2.92;69.26
75759;BME280;64371;47.566;19.086;2023-02-26T02:37:31;99261.19;;;2.80;69.26
75759;BME280;64371;47.566;19.086;2023-02-26T02:40:42;99267.41;;;2.79;69.28
75759;BME280;64371;47.566;19.086;2023-02-26T02:44:00;99266.38;;;2.80;69.16
75759;BME280;64371;47.566;19.086;2023-02-26T02:47:09;99271.63;;;2.85;69.47
75759;BME280;64371;47.566;19.086;2023-02-26T02:50:31;99257.22;;;2.67;69.84
75759;BME280;64371;47.566;19.086;2023-02-26T02:53:44;99268.94;;;2.69;70.01
75759;BME280;64371;47.566;19.086;2023-02-26T02:57:05;99287.66;;;2.66;70.25
75759;BME280;64371;47.566;19.086;2023-02-26T03:00:35;99299.38;;;2.64;70.02
75759;BME280;64371;47.566;19.086;2023-02-26T03:04:14;99301.44;;;2.67;70.31
75759;BME280;64371;47.566;19.086;2023-02-26T03:07:20;99300.41;;;2.63;70.51
75759;BME280;64371;47.566;19.086;2023-02-26T03:10:44;99330.03;;;2.62;70.95
75759;BME280;64371;47.566;19.086;2023-02-26T03:13:50;99312.00;;;2.45;70.93
75759;BME280;64371;47.566;19.086;2023-02-26T03:17:26;99305.81;;;2.51;71.05
75759;BME280;64371;47.566;19.086;2023-02-26T03:21:01;99291.47;;;2.49;71.15
75759;BME280;64371;47.566;19.086;2023-02-26T03:24:31;99305.00;;;2.51;71.29
75759;BME280;64371;47.566;19.086;2023-02-26T03:27:52;99310.97;;;2.46;71.58
75759;BME280;64371;47.566;19.086;2023-02-26T03:31:10;99315.63;;;2.39;71.60
75759;BME280;64371;47.566;19.086;2023-02-26T03:34:39;99324.88;;;2.25;72.23
75759;BME280;64371;47.566;19.086;2023-02-26T03:37:48;99330.09;;;2.25;72.45
75759;BME280;64371;47.566;19.086;2023-02-26T03:41:07;99324.66;;;2.32;72.29
75759;BME280;64371;47.566;19.086;2023-02-26T03:44:36;99326.50;;;2.36;71.98
75759;BME280;64371;47.566;19.086;2023-02-26T03:47:43;99322.13;;;2.42;71.21
75759;BME280;64371;47.566;19.086;2023-02-26T03:51:11;99343.44;;;2.39;71.87
75759;BME280;64371;47.566;19.086;2023-02-26T03:54:45;99350.19;;;2.40;72.01
75759;BME280;64371;47.566;19.086;2023-02-26T03:58:13;99348.34;;;2.35;71.91
75759;BME280;64371;47.566;19.086;2023-02-26T04:01:59;99359.22;;;2.27;72.26
75759;BME280;64371;47.566;19.086;2023-02-26T04:05:15;99337.59;;;2.22;72.63
75759;BME280;64371;47.566;19.086;2023-02-26T04:08:25;99315.19;;;2.21;72.56
75759;BME280;64371;47.566;19.086;2023-02-26T04:11:32;99306.38;;;2.22;72.36
75759;BME280;64371;47.566;19.086;2023-02-26T04:14:48;99317.56;;;2.22;72.96
75759;BME280;64371;47.566;19.086;2023-02-26T04:18:05;99316.03;;;2.26;72.25
75759;BME280;64371;47.566;19.086;2023-02-26T04:21:16;99317.84;;;2.26;72.09
75759;BME280;64371;47.566;19.086;2023-02-26T04:24:27;99327.44;;;2.20;73.08
75759;BME280;64371;47.566;19.086;2023-02-26T04:27:36;99358.34;;;2.17;72.69
75759;BME280;64371;47.566;19.086;2023-02-26T04:30:44;99362.31;;;2.24;72.79
75759;BME280;64371;47.566;19.086;2023-02-26T04:33:51;99393.47;;;2.19;72.81
75759;BME280;64371;47.566;19.086;2023-02-26T04:36:56;99389.53;;;2.17;73.09
75759;BME280;64371;47.566;19.086;2023-02-26T04:40:08;99378.06;;;2.13;73.26
75759;BME280;64371;47.566;19.086;2023-02-26T04:43:12;99385.56;;;2.09;73.11
75759;BME280;64371;47.566;19.086;2023-02-26T04:46:31;99403.81;;;2.14;72.92
75759;BME280;64371;47.566;19.086;2023-02-26T04:49:34;99418.09;;;2.12;73.12
75759;BME280;64371;47.566;19.086;2023-02-26T04:53:02;99420.41;;;2.08;72.85
75759;BME280;64371;47.566;19.086;2023-02-26T04:56:11;99417.97;;;2.01;73.14
75759;BME280;64371;47.566;19.086;2023-02-26T04:59:18;99400.31;;;2.03;73.10
75759;BME280;64371;47.566;19.086;2023-02-26T05:02:22;99390.50;;;2.06;73.11
75759;BME280;64371;47.566;19.086;2023-02-26T05:05:30;99403.75;;;2.09;72.79
75759;BME280;64371;47.566;19.086;2023-02-26T05:08:35;99405.81;;;2.07;73.01
75759;BME280;64371;47.566;19.086;2023-02-26T05:11:49;99390.22;;;2.07;72.96
75759;BME280;64371;47.566;19.086;2023-02-26T05:14:59;99394.69;;;2.12;72.92
75759;BME280;64371;47.566;19.086;2023-02-26T05:18:04;99413.41;;;2.14;73.17
75759;BME280;64371;47.566;19.086;2023-02-26T05:21:18;99395.47;;;2.12;72.99
75759;BME280;64371;47.566;19.086;2023-02-26T05:24:27;99394.69;;;2.12;73.28
75759;BME280;64371;47.566;19.086;2023-02-26T05:27:31;99385.63;;;2.14;72.96
75759;BME280;64371;47.566;19.086;2023-02-26T05:30:35;99424.41;;;2.21;72.81
75759;BME280;64371;47.566;19.086;2023-02-26T05:33:42;99438.50;;;2.25;72.15
75759;BME280;64371;47.566;19.086;2023-02-26T05:36:50;99445.75;;;2.23;72.50
75759;BME280;64371;47.566;19.086;2023-02-26T05:39:59;99448.31;;;2.18;72.47
75759;BME280;64371;47.566;19.086;2023-02-26T05:43:04;99441.31;;;2.23;72.53
75759;BME280;64371;47.566;19.086;2023-02-26T05:46:12;99426.78;;;2.22;72.49
75759;BME280;64371;47.566;19.086;2023-02-26T05:49:17;99442.16;;;2.29;72.38
75759;BME280;64371;47.566;19.086;2023-02-26T05:52:20;99459.56;;;2.28;72.65
75759;BME280;64371;47.566;19.086;2023-02-26T05:55:30;99481.69;;;2.31;72.16
75759;BME280;64371;47.566;19.086;2023-02-26T05:58:37;99474.91;;;2.25;71.72
75759;BME280;64371;47.566;19.086;2023-02-26T06:02:15;99470.72;;;2.24;72.51
75759;BME280;64371;47.566;19.086;2023-02-26T06:05:20;99478.25;;;2.20;71.90
75759;BME280;64371;47.566;19.086;2023-02-26T06:08:29;99481.59;;;2.21;72.51
75759;BME280;64371;47.566;19.086;2023-02-26T06:11:38;99483.50;;;2.25;71.97
75759;BME280;64371;47.566;19.086;2023-02-26T06:14:44;99479.59;;;2.28;72.03
75759;BME280;64371;47.566;19.086;2023-02-26T06:17:49;99473.22;;;2.14;72.11
75759;BME280;64371;47.566;19.086;2023-02-26T06:21:00;99493.03;;;2.20;72.49
75759;BME280;64371;47.566;19.086;2023-02-26T06:24:12;99495.97;;;2.28;72.13
75759;BME280;64371;47.566;19.086;2023-02-26T06:27:22;99508.94;;;2.23;72.51
75759;BME280;64371;47.566;19.086;2023-02-26T06:30:30;99519.59;;;2.22;72.47
75759;BME280;64371;47.566;19.086;2023-02-26T06:33:38;99515.44;;;2.26;72.61
75759;BME280;64371;47.566;19.086;2023-02-26T06:36:43;99516.25;;;2.26;72.12
75759;BME280;64371;47.566;19.086;2023-02-26T06:39:58;99501.28;;;2.38;71.89
75759;BME280;64371;47.566;19.086;2023-02-26T06:43:07;99504.41;;;2.40;71.69
75759;BME280;64371;47.566;19.086;2023-02-26T06:46:09;99519.06;;;2.46;71.77
75759;BME280;64371;47.566;19.086;2023-02-26T06:49:14;99554.84;;;2.61;70.96
75759;BME280;64371;47.566;19.086;2023-02-26T06:52:25;99565.47;;;2.59;71.06
75759;BME280;64371;47.566;19.086;2023-02-26T06:55:30;99552.47;;;2.59;71.31
75759;BME280;64371;47.566;19.086;2023-02-26T06:58:43;99549.59;;;2.56;71.07
75759;BME280;64371;47.566;19.086;2023-02-26T07:01:53;99546.88;;;2.73;70.59
75759;BME280;64371;47.566;19.086;2023-02-26T07:05:03;99547.34;;;2.69;70.64
75759;BME280;64371;47.566;19.086;2023-02-26T07:08:21;99551.81;;;2.74;70.32
75759;BME280;64371;47.566;19.086;2023-02-26T07:11:32;99552.22;;;2.88;70.59
75759;BME280;64371;47.566;19.086;2023-02-26T07:14:37;99560.13;;;2.98;69.52
75759;BME280;64371;47.566;19.086;2023-02-26T07:17:45;99564.22;;;2.94;69.78
75759;BME280;64371;47.566;19.086;2023-02-26T07:20:51;99550.53;;;3.08;69.71
75759;BME280;64371;47.566;19.086;2023-02-26T07:24:00;99532.13;;;3.20;69.24
75759;BME280;64371;47.566;19.086;2023-02-26T07:27:05;99533.53;;;3.32;68.86
75759;BME280;64371;47.566;19.086;2023-02-26T07:30:13;99541.91;;;3.40;68.15
75759;BME280;64371;47.566;19.086;2023-02-26T07:33:23;99552.72;;;3.58;68.17
75759;BME280;64371;47.566;19.086;2023-02-26T07:36:26;99547.03;;;3.71;66.96
75759;BME280;64371;47.566;19.086;2023-02-26T07:39:32;99531.34;;;3.61;67.97
75759;BME280;64371;47.566;19.086;2023-02-26T07:42:37;99540.34;;;3.90;67.22
75759;BME280;64371;47.566;19.086;2023-02-26T07:45:41;99565.50;;;4.22;65.55
75759;BME280;64371;47.566;19.086;2023-02-26T07:48:48;99564.28;;;4.44;64.55
75759;BME280;64371;47.566;19.086;2023-02-26T07:51:55;99555.66;;;4.44;65.11
75759;BME280;64371;47.566;19.086;2023-02-26T07:55:09;99565.31;;;4.43;64.92
75759;BME280;64371;47.566;19.086;2023-02-26T07:58:20;99554.91;;;4.58;64.05
75759;BME280;64371;47.566;19.086;2023-02-26T08:01:37;99562.22;;;4.61;64.25
75759;BME280;64371;47.566;19.086;2023-02-26T08:04:49;99558.56;;;4.67;64.03
75759;BME280;64371;47.566;19.086;2023-02-26T08:08:02;99568.50;;;4.81;63.39
75759;BME280;64371;47.566;19.086;2023-02-26T08:11:08;99557.56;;;4.79;63.36
75759;BME280;64371;47.566;19.086;2023-02-26T08:14:14;99559.28;;;4.33;64.27
75759;BME280;64371;47.566;19.086;2023-02-26T08:17:26;99552.59;;;4.72;63.41
75759;BME280;64371;47.566;19.086;2023-02-26T08:20:37;99555.72;;;4.64;63.56
75759;BME280;64371;47.566;19.086;2023-02-26T08:23:45;99549.97;;;4.72;63.33
75759;BME280;64371;47.566;19.086;2023-02-26T08:27:05;99567.75;;;4.90;63.34
75759;BME280;64371;47.566;19.086;2023-02-26T08:30:16;99576.88;;;5.03;62.34
75759;BME280;64371;47.566;19.086;2023-02-26T08:33:18;99585.25;;;5.00;62.44
75759;BME280;64371;47.566;19.086;2023-02-26T08:36:23;99574.75;;;4.80;62.82
75759;BME280;64371;47.566;19.086;2023-02-26T08:39:28;99564.56;;;4.63;63.24
75759;BME280;64371;47.566;19.086;2023-02-26T08:46:09;99586.81;;;4.86;62.72
75759;BME280;64371;47.566;19.086;2023-02-26T08:49:17;99578.19;;;4.95;61.97
75759;BME280;64371;47.566;19.086;2023-02-26T08:52:27;99595.19;;;5.03;60.46
75759;BME280;64371;47.566;19.086;2023-02-26T08:55:35;99591.75;;;4.87;60.39
75759;BME280;64371;47.566;19.086;2023-02-26T08:58:38;99606.41;;;4.98;59.91
75759;BME280;64371;47.566;19.086;2023-02-26T09:01:42;99606.13;;;5.00;59.10
75759;BME280;64371;47.566;19.086;2023-02-26T09:04:54;99607.19;;;4.89;58.71
75759;BME280;64371;47.566;19.086;2023-02-26T09:08:02;99630.69;;;4.89;58.80
75759;BME280;64371;47.566;19.086;2023-02-26T09:11:10;99622.31;;;5.02;58.11
75759;BME280;64371;47.566;19.086;2023-02-26T09:14:27;99625.22;;;5.15;58.12
75759;BME280;64371;47.566;19.086;2023-02-26T09:17:30;99622.09;;;5.28;58.03
75759;BME280;64371;47.566;19.086;2023-02-26T09:20:41;99616.09;;;5.18;58.21
75759;BME280;64371;47.566;19.086;2023-02-26T09:23:46;99629.91;;;5.03;58.00
75759;BME280;64371;47.566;19.086;2023-02-26T09:26:56;99639.84;;;5.01;58.23
75759;BME280;64371;47.566;19.086;2023-02-26T09:30:08;99630.44;;;5.30;57.45
75759;BME280;64371;47.566;19.086;2023-02-26T09:33:15;99638.00;;;5.57;56.87
75759;BME280;64371;47.566;19.086;2023-02-26T09:36:17;99632.78;;;5.62;57.02
75759;BME280;64371;47.566;19.086;2023-02-26T09:39:27;99646.91;;;5.61;56.35
75759;BME280;64371;47.566;19.086;2023-02-26T09:42:51;99647.94;;;5.65;54.90
75759;BME280;64371;47.566;19.086;2023-02-26T09:46:04;99651.88;;;5.93;53.62
75759;BME280;64371;47.566;19.086;2023-02-26T09:52:26;99654.16;;;6.25;51.79
75759;BME280;64371;47.566;19.086;2023-02-26T09:55:50;99649.53;;;5.71;53.02
75759;BME280;64371;47.566;19.086;2023-02-26T09:59:04;99644.03;;;5.43;53.34
75759;BME280;64371;47.566;19.086;2023-02-26T10:02:36;99650.03;;;5.53;52.88
75759;BME280;64371;47.566;19.086;2023-02-26T10:09:18;99661.81;;;5.56;54.27
75759;BME280;64371;47.566;19.086;2023-02-26T10:12:27;99661.28;;;5.59;54.35
75759;BME280;64371;47.566;19.086;2023-02-26T10:15:39;99676.19;;;5.83;53.27
75759;BME280;64371;47.566;19.086;2023-02-26T10:19:00;99697.88;;;5.99;53.15
75759;BME280;64371;47.566;19.086;2023-02-26T10:22:35;99701.78;;;6.22;53.33
75759;BME280;64371;47.566;19.086;2023-02-26T10:26:12;99716.16;;;6.34;52.62
75759;BME280;64371;47.566;19.086;2023-02-26T10:29:25;99708.78;;;6.41;52.72
75759;BME280;64371;47.566;19.086;2023-02-26T10:32:44;99718.97;;;6.48;52.76
75759;BME280;64371;47.566;19.086;2023-02-26T10:39:45;99723.94;;;6.44;53.12
75759;BME280;64371;47.566;19.086;2023-02-26T10:42:57;99731.41;;;6.81;52.61
75759;BME280;64371;47.566;19.086;2023-02-26T10:52:44;99750.78;;;6.90;51.29
75759;BME280;64371;47.566;19.086;2023-02-26T10:56:29;99755.84;;;7.20;51.13
75759;BME280;64371;47.566;19.086;2023-02-26T10:59:46;99745.91;;;6.63;53.09
75759;BME280;64371;47.566;19.086;2023-02-26T11:03:01;99743.50;;;7.26;51.46
75759;BME280;64371;47.566;19.086;2023-02-26T11:06:19;99757.47;;;8.23;48.54
75759;BME280;64371;47.566;19.086;2023-02-26T11:09:34;99750.72;;;7.44;49.86
75759;BME280;64371;47.566;19.086;2023-02-26T11:12:53;99752.34;;;6.91;51.52
75759;BME280;64371;47.566;19.086;2023-02-26T11:16:13;99751.28;;;7.41;50.25
75759;BME280;64371;47.566;19.086;2023-02-26T11:19:41;99751.19;;;7.51;50.78
75759;BME280;64371;47.566;19.086;2023-02-26T11:22:52;99743.38;;;7.02;51.61
75759;BME280;64371;47.566;19.086;2023-02-26T11:26:17;99752.69;;;7.67;50.44
75759;BME280;64371;47.566;19.086;2023-02-26T11:29:24;99754.88;;;7.11;51.92
75759;BME280;64371;47.566;19.086;2023-02-26T11:32:34;99759.81;;;7.18;52.79
75759;BME280;64371;47.566;19.086;2023-02-26T11:35:40;99759.25;;;7.65;51.21
75759;BME280;64371;47.566;19.086;2023-02-26T11:39:00;99763.97;;;7.24;51.32
75759;BME280;64371;47.566;19.086;2023-02-26T11:42:05;99761.44;;;7.04;52.58
75759;BME280;64371;47.566;19.086;2023-02-26T11:45:19;99770.38;;;7.47;52.05
75759;BME280;64371;47.566;19.086;2023-02-26T11:48:32;99772.94;;;7.57;51.55
75759;BME280;64371;47.566;19.086;2023-02-26T11:51:44;99763.91;;;7.34;51.85
75759;BME280;64371;47.566;19.086;2023-02-26T11:54:58;99769.97;;;7.29;51.98
75759;BME280;64371;47.566;19.086;2023-02-26T11:58:18;99770.09;;;7.53;51.96
75759;BME280;64371;47.566;19.086;2023-02-26T12:01:28;99770.97;;;7.77;51.12
75759;BME280;64371;47.566;19.086;2023-02-26T12:04:44;99778.56;;;7.79;50.97
75759;BME280;64371;47.566;19.086;2023-02-26T12:07:54;99775.63;;;7.47;51.37
75759;BME280;64371;47.566;19.086;2023-02-26T12:14:42;99781.00;;;7.26;51.88
75759;BME280;64371;47.566;19.086;2023-02-26T12:39:02;99803.91;;;7.93;49.88
75759;BME280;64371;47.566;19.086;2023-02-26T13:18:26;99841.13;;;7.03;52.24
75759;BME280;64371;47.566;19.086;2023-02-26T13:21:44;99847.47;;;6.77;53.05
75759;BME280;64371;47.566;19.086;2023-02-26T13:25:07;99861.06;;;6.89;52.99
75759;BME280;64371;47.566;19.086;2023-02-26T13:28:42;99863.47;;;6.70;53.13
75759;BME280;64371;47.566;19.086;2023-02-26T13:35:19;99860.34;;;6.73;52.18
75759;BME280;64371;47.566;19.086;2023-02-26T13:49:02;99860.38;;;6.48;52.39
75759;BME280;64371;47.566;19.086;2023-02-26T13:52:34;99869.00;;;6.33;53.52
75759;BME280;64371;47.566;19.086;2023-02-26T13:55:47;99878.44;;;6.24;54.10
75759;BME280;64371;47.566;19.086;2023-02-26T13:59:02;99869.00;;;6.13;55.19
75759;BME280;64371;47.566;19.086;2023-02-26T14:02:50;99874.00;;;6.20;55.30
75759;BME280;64371;47.566;19.086;2023-02-26T14:09:34;99878.44;;;6.14;55.49
75759;BME280;64371;47.566;19.086;2023-02-26T14:12:45;99893.31;;;5.98;56.60
75759;BME280;64371;47.566;19.086;2023-02-26T14:19:04;99902.75;;;6.05;56.46
75759;BME280;64371;47.566;19.086;2023-02-26T14:25:28;99909.28;;;6.02;57.04
75759;BME280;64371;47.566;19.086;2023-02-26T14:29:15;99912.94;;;5.96;56.30
75759;BME280;64371;47.566;19.086;2023-02-26T14:35:51;99914.00;;;6.05;56.27
75759;BME280;64371;47.566;19.086;2023-02-26T14:39:00;99911.09;;;5.91;56.00
75759;BME280;64371;47.566;19.086;2023-02-26T14:42:10;99918.16;;;6.01;56.97
75759;BME280;64371;47.566;19.086;2023-02-26T14:45:31;99917.66;;;5.99;56.62
75759;BME280;64371;47.566;19.086;2023-02-26T14:48:37;99914.50;;;5.92;56.62
75759;BME280;64371;47.566;19.086;2023-02-26T14:52:10;99927.31;;;5.88;56.19
75759;BME280;64371;47.566;19.086;2023-02-26T14:55:55;99934.38;;;5.88;56.18
75759;BME280;64371;47.566;19.086;2023-02-26T15:03:28;99940.06;;;5.80;56.27
75759;BME280;64371;47.566;19.086;2023-02-26T15:21:10;99970.94;;;5.78;55.07
75759;BME280;64371;47.566;19.086;2023-02-26T15:24:14;99979.78;;;5.72;54.80
75759;BME280;64371;47.566;19.086;2023-02-26T15:27:23;99991.28;;;5.66;56.21
75759;BME280;64371;47.566;19.086;2023-02-26T15:30:30;99991.66;;;5.38;56.21
75759;BME280;64371;47.566;19.086;2023-02-26T15:33:41;99991.63;;;5.32;56.76
75759;BME280;64371;47.566;19.086;2023-02-26T15:36:52;99997.88;;;5.31;56.52
75759;BME280;64371;47.566;19.086;2023-02-26T15:40:04;100010.88;;;5.21;56.29
75759;BME280;64371;47.566;19.086;2023-02-26T15:43:24;99995.75;;;5.23;56.18
75759;BME280;64371;47.566;19.086;2023-02-26T15:46:40;100007.03;;;5.29;56.43
75759;BME280;64371;47.566;19.086;2023-02-26T15:50:14;100010.66;;;5.23;55.45
75759;BME280;64371;47.566;19.086;2023-02-26T15:53:29;100016.06;;;5.16;55.69
75759;BME280;64371;47.566;19.086;2023-02-26T15:56:35;100018.75;;;5.26;55.34
75759;BME280;64371;47.566;19.086;2023-02-26T15:59:44;100017.94;;;5.21;55.15
75759;BME280;64371;47.566;19.086;2023-02-26T16:02:54;100026.03;;;5.19;55.24
75759;BME280;64371;47.566;19.086;2023-02-26T16:05:58;100035.16;;;5.17;55.67
75759;BME280;64371;47.566;19.086;2023-02-26T16:09:33;100033.56;;;5.11;55.38
75759;BME280;64371;47.566;19.086;2023-02-26T16:12:44;100032.97;;;5.04;55.68
75759;BME280;64371;47.566;19.086;2023-02-26T16:15:52;100045.34;;;5.13;55.27
75759;BME280;64371;47.566;19.086;2023-02-26T16:18:59;100050.22;;;5.05;55.52
75759;BME280;64371;47.566;19.086;2023-02-26T16:22:36;100060.44;;;5.11;55.72
75759;BME280;64371;47.566;19.086;2023-02-26T16:25:58;100059.59;;;5.01;55.63
75759;BME280;64371;47.566;19.086;2023-02-26T16:29:11;100054.81;;;4.93;56.14
75759;BME280;64371;47.566;19.086;2023-02-26T16:32:32;100066.84;;;4.94;56.13
75759;BME280;64371;47.566;19.086;2023-02-26T16:35:48;100064.72;;;4.91;56.91
75759;BME280;64371;47.566;19.086;2023-02-26T16:42:11;100072.81;;;4.89;57.05
75759;BME280;64371;47.566;19.086;2023-02-26T16:48:55;100081.16;;;4.86;56.62
75759;BME280;64371;47.566;19.086;2023-02-26T16:52:12;100094.25;;;4.91;56.89
75759;BME280;64371;47.566;19.086;2023-02-26T16:55:29;100096.03;;;4.86;57.20
75759;BME280;64371;47.566;19.086;2023-02-26T16:58:35;100103.38;;;4.89;57.76
75759;BME280;64371;47.566;19.086;2023-02-26T17:05:32;100104.56;;;4.76;58.07
75759;BME280;64371;47.566;19.086;2023-02-26T17:08:46;100102.75;;;4.77;58.26
75759;BME280;64371;47.566;19.086;2023-02-26T17:15:30;100111.09;;;4.79;59.06
75759;BME280;64371;47.566;19.086;2023-02-26T17:18:40;100113.72;;;4.79;59.03
75759;BME280;64371;47.566;19.086;2023-02-26T17:21:50;100123.91;;;4.80;59.43
75759;BME280;64371;47.566;19.086;2023-02-26T17:24:59;100117.88;;;4.75;59.76
75759;BME280;64371;47.566;19.086;2023-02-26T17:28:26;100119.63;;;4.69;59.76
75759;BME280;64371;47.566;19.086;2023-02-26T17:31:33;100119.31;;;4.65;60.19
75759;BME280;64371;47.566;19.086;2023-02-26T17:34:43;100120.91;;;4.66;60.06
75759;BME280;64371;47.566;19.086;2023-02-26T17:37:50;100124.31;;;4.67;60.40
75759;BME280;64371;47.566;19.086;2023-02-26T17:41:08;100124.53;;;4.65;60.21
75759;BME280;64371;47.566;19.086;2023-02-26T17:44:13;100123.94;;;4.58;60.62
75759;BME280;64371;47.566;19.086;2023-02-26T17:47:33;100134.59;;;4.52;60.79
75759;BME280;64371;47.566;19.086;2023-02-26T17:50:55;100130.56;;;4.44;61.36
75759;BME280;64371;47.566;19.086;2023-02-26T17:54:00;100130.09;;;4.47;61.40
75759;BME280;64371;47.566;19.086;2023-02-26T17:57:10;100135.38;;;4.52;61.50
75759;BME280;64371;47.566;19.086;2023-02-26T18:00:22;100129.50;;;4.40;61.85
75759;BME280;64371;47.566;19.086;2023-02-26T18:03:31;100135.91;;;4.33;62.09
75759;BME280;64371;47.566;19.086;2023-02-26T18:06:37;100133.44;;;4.21;62.49
75759;BME280;64371;47.566;19.086;2023-02-26T18:09:52;100133.50;;;4.26;62.32
75759;BME280;64371;47.566;19.086;2023-02-26T18:12:55;100134.78;;;4.24;62.03
75759;BME280;64371;47.566;19.086;2023-02-26T18:16:04;100136.28;;;4.20;61.57
75759;BME280;64371;47.566;19.086;2023-02-26T18:19:12;100137.25;;;4.14;61.56
75759;BME280;64371;47.566;19.086;2023-02-26T18:22:24;100132.50;;;4.11;62.07
75759;BME280;64371;47.566;19.086;2023-02-26T18:25:40;100132.69;;;4.04;62.34
75759;BME280;64371;47.566;19.086;2023-02-26T18:28:49;100136.31;;;4.03;61.68
75759;BME280;64371;47.566;19.086;2023-02-26T18:31:59;100145.59;;;3.94;62.54
75759;BME280;64371;47.566;19.086;2023-02-26T18:35:09;100142.97;;;3.94;62.63
75759;BME280;64371;47.566;19.086;2023-02-26T18:38:21;100145.81;;;3.92;62.46
75759;BME280;64371;47.566;19.086;2023-02-26T18:41:28;100147.47;;;3.98;62.11
75759;BME280;64371;47.566;19.086;2023-02-26T18:44:33;100157.53;;;3.90;62.38
75759;BME280;64371;47.566;19.086;2023-02-26T18:47:37;100149.72;;;3.90;62.53
75759;BME280;64371;47.566;19.086;2023-02-26T18:50:42;100169.34;;;3.97;62.26
75759;BME280;64371;47.566;19.086;2023-02-26T18:53:47;100168.69;;;4.07;61.79
75759;BME280;64371;47.566;19.086;2023-02-26T18:56:55;100169.56;;;4.13;61.65
75759;BME280;64371;47.566;19.086;2023-02-26T18:59:58;100166.41;;;4.11;61.66
75759;BME280;64371;47.566;19.086;2023-02-26T19:03:04;100166.25;;;4.17;61.46
75759;BME280;64371;47.566;19.086;2023-02-26T19:06:06;100173.22;;;4.12;61.34
75759;BME280;64371;47.566;19.086;2023-02-26T19:09:10;100173.22;;;4.12;61.58
75759;BME280;64371;47.566;19.086;2023-02-26T19:12:15;100184.06;;;4.03;62.02
75759;BME280;64371;47.566;19.086;2023-02-26T19:15:28;100187.59;;;3.97;62.09
75759;BME280;64371;47.566;19.086;2023-02-26T19:18:38;100187.69;;;4.02;62.11
75759;BME280;64371;47.566;19.086;2023-02-26T19:21:43;100183.91;;;3.93;62.49
75759;BME280;64371;47.566;19.086;2023-02-26T19:24:50;100194.16;;;4.00;62.56
75759;BME280;64371;47.566;19.086;2023-02-26T19:27:55;100198.63;;;3.99;62.87
75759;BME280;64371;47.566;19.086;2023-02-26T19:31:06;100194.59;;;3.92;62.97
75759;BME280;64371;47.566;19.086;2023-02-26T19:34:23;100200.56;;;3.92;63.23
75759;BME280;64371;47.566;19.086;2023-02-26T19:37:37;100201.63;;;3.91;63.31
75759;BME280;64371;47.566;19.086;2023-02-26T19:40:46;100213.22;;;4.00;62.89
75759;BME280;64371;47.566;19.086;2023-02-26T19:43:54;100219.94;;;3.96;62.98
75759;BME280;64371;47.566;19.086;2023-02-26T19:46:59;100218.34;;;3.95;63.17
75759;BME280;64371;47.566;19.086;2023-02-26T19:50:03;100210.88;;;3.99;62.79
75759;BME280;64371;47.566;19.086;2023-02-26T19:53:16;100217.72;;;3.88;63.66
75759;BME280;64371;47.566;19.086;2023-02-26T19:56:21;100235.53;;;3.91;63.75
75759;BME280;64371;47.566;19.086;2023-02-26T19:59:38;100228.72;;;3.90;64.16